Time;durP1;ratioP1;P1;durP2;ratioP2;P2;SDS_P1;SDS_P2;PMS_P1;PMS_P2;Temp;Humidity;BMP_temperature;BMP_pressure;BME280_temperature;BME280_humidity;BME280_pressure;Samples;Min_cycle;Max_cycle;Signal;HPM_P1;HPM_P2
2022/01/29 00:00:26;;;;;;;;;;;5.70;99.90;;;;;;5005380;28;20190;-71
2022/01/29 00:02:54;;;;;;;;;;;5.70;99.90;;;;;;5009385;28;21054;-71
2022/01/29 00:05:22;;;;;;;;;;;5.80;99.90;;;;;;5006153;28;20060;-71
2022/01/29 00:07:49;;;;;;;;;;;5.80;99.90;;;;;;5006224;28;21144;-70
2022/01/29 00:10:16;;;;;;;;;;;5.80;99.90;;;;;;5004734;28;20060;-71
2022/01/29 00:12:43;;;;;;;;;;;5.80;99.90;;;;;;5005391;28;20082;-71
2022/01/29 00:15:11;;;;;;;;;;;5.80;99.90;;;;;;5006250;28;20108;-69
2022/01/29 00:17:38;;;;;;;;;;;5.80;99.90;;;;;;5006025;28;20140;-71
2022/01/29 00:20:07;;;;;;;;;;;5.80;99.90;;;;;;5005358;28;20187;-71
2022/01/29 00:22:34;;;;;;;;;;;5.80;99.90;;;;;;5005705;28;20117;-71
2022/01/29 00:25:01;;;;;;;;;;;5.80;99.90;;;;;;5006257;28;20141;-71
2022/01/29 00:27:33;;;;;;;;;;;5.80;99.90;;;;;;5005919;28;20161;-71
2022/01/29 00:30:03;;;;;;;;;;;5.90;99.90;;;;;;5005147;28;20069;-71
2022/01/29 00:32:30;;;;;;;;;;;5.90;99.90;;;;;;5006059;28;20059;-71
2022/01/29 00:34:57;;;;;;;;;;;5.90;99.90;;;;;;5005624;28;21111;-71
2022/01/29 00:37:26;;;;;;;;;;;5.90;99.90;;;;;;5005955;28;20164;-71
2022/01/29 00:39:53;;;;;;;;;;;5.90;99.90;;;;;;5004619;28;20149;-71
2022/01/29 00:42:20;;;;;;;;;;;5.90;99.90;;;;;;5006191;28;20077;-72
2022/01/29 00:44:47;;;;;;;;;;;5.90;99.90;;;;;;5005299;28;20161;-71
2022/01/29 00:47:14;;;;;;;;;;;5.90;99.90;;;;;;5005574;28;20157;-71
2022/01/29 00:49:41;;;;;;;;;;;5.90;99.90;;;;;;5004491;28;20250;-72
2022/01/29 00:52:09;;;;;;;;;;;5.90;99.90;;;;;;5004507;28;20171;-70
2022/01/29 00:54:38;;;;;;;;;;;5.90;99.90;;;;;;5005840;28;20115;-71
2022/01/29 00:57:06;;;;;;;;;;;5.90;99.90;;;;;;5005717;28;20069;-70
2022/01/29 00:59:34;;;;;;;;;;;5.90;99.90;;;;;;5001564;28;20076;-72
2022/01/29 01:02:02;;;;;;;;;;;5.90;99.90;;;;;;5003236;28;21204;-72
2022/01/29 01:04:29;;;;;;;;;;;5.90;99.90;;;;;;5003702;28;20068;-72
2022/01/29 01:06:56;;;;;;;;;;;5.90;99.90;;;;;;5003417;28;21169;-70
2022/01/29 01:09:24;;;;;;;;;;;5.90;99.90;;;;;;5001541;28;20067;-69
2022/01/29 01:11:52;;;;;;;;;;;5.90;99.90;;;;;;5003455;28;20060;-70
2022/01/29 01:14:19;;;;;;;;;;;5.90;99.90;;;;;;5003211;28;20082;-70
2022/01/29 01:16:47;;;;;;;;;;;5.90;99.90;;;;;;5002313;28;20082;-70
2022/01/29 01:19:14;;;;;;;;;;;5.90;99.90;;;;;;5001119;28;20170;-70
2022/01/29 01:21:41;;;;;;;;;;;5.90;99.90;;;;;;5003227;28;20076;-70
2022/01/29 01:24:08;;;;;;;;;;;5.90;99.90;;;;;;5003308;28;20069;-70
2022/01/29 01:26:35;;;;;;;;;;;5.90;99.90;;;;;;4987992;28;20079;-70
2022/01/29 01:29:04;;;;;;;;;;;6.00;99.90;;;;;;4959860;28;20159;-69
2022/01/29 01:31:31;;;;;;;;;;;6.00;99.90;;;;;;4990138;28;20182;-70
2022/01/29 01:33:59;;;;;;;;;;;6.00;99.90;;;;;;5003051;28;20075;-70
2022/01/29 01:36:27;;;;;;;;;;;6.00;99.90;;;;;;5003120;28;20063;-70
2022/01/29 01:39:01;;;;;;;;;;;6.00;99.90;;;;;;5001591;28;20060;-70
2022/01/29 01:41:35;;;;;;;;;;;6.00;99.90;;;;;;5003274;28;20064;-70
2022/01/29 01:44:02;;;;;;;;;;;6.00;99.90;;;;;;5002087;28;20214;-70
2022/01/29 01:46:31;;;;;;;;;;;6.00;99.90;;;;;;5003085;28;20060;-69
2022/01/29 01:48:59;;;;;;;;;;;6.00;99.90;;;;;;5000954;28;20089;-70
2022/01/29 01:51:26;;;;;;;;;;;6.00;99.90;;;;;;5002887;28;20073;-70
2022/01/29 01:53:53;;;;;;;;;;;6.00;99.90;;;;;;5002437;28;20059;-69
2022/01/29 01:56:20;;;;;;;;;;;6.00;99.90;;;;;;5002924;28;20068;-70
2022/01/29 01:58:47;;;;;;;;;;;6.00;99.90;;;;;;5000318;28;20061;-69
2022/01/29 02:01:14;;;;;;;;;;;6.10;99.90;;;;;;5002704;28;20074;-69
2022/01/29 02:03:44;;;;;;;;;;;6.10;99.90;;;;;;5002438;28;20052;-70
2022/01/29 02:06:11;;;;;;;;;;;6.10;99.90;;;;;;5002689;28;20278;-70
2022/01/29 02:08:38;;;;;;;;;;;6.10;99.90;;;;;;5001802;28;20161;-69
2022/01/29 02:11:06;;;;;;;;;;;6.10;99.90;;;;;;5001039;28;20061;-67
2022/01/29 02:13:33;;;;;;;;;;;6.10;99.90;;;;;;5002638;28;20097;-70
2022/01/29 02:16:01;;;;;;;;;;;6.10;99.90;;;;;;5002951;28;20051;-70
2022/01/29 02:18:28;;;;;;;;;;;6.10;99.90;;;;;;5001102;28;20059;-69
2022/01/29 02:20:59;;;;;;;;;;;6.20;99.90;;;;;;5001249;28;20141;-69
2022/01/29 02:23:28;;;;;;;;;;;6.20;99.90;;;;;;5002853;28;20170;-70
2022/01/29 02:25:55;;;;;;;;;;;6.20;99.90;;;;;;5002142;28;21361;-69
2022/01/29 02:28:23;;;;;;;;;;;6.20;99.90;;;;;;5002864;28;20060;-69
2022/01/29 02:30:56;;;;;;;;;;;6.20;99.90;;;;;;5005164;28;20090;-70
2022/01/29 02:33:24;;;;;;;;;;;6.20;99.90;;;;;;5006258;28;20059;-70
2022/01/29 02:35:51;;;;;;;;;;;6.20;99.90;;;;;;5005574;28;20080;-70
2022/01/29 02:38:20;;;;;;;;;;;6.20;99.90;;;;;;5005891;28;20052;-70
2022/01/29 02:40:51;;;;;;;;;;;6.10;99.90;;;;;;5005178;28;20060;-69
2022/01/29 02:43:20;;;;;;;;;;;6.10;99.90;;;;;;5005915;28;20204;-69
2022/01/29 02:45:48;;;;;;;;;;;6.10;99.90;;;;;;5006114;28;21163;-70
2022/01/29 02:48:15;;;;;;;;;;;6.10;99.90;;;;;;5005609;28;20193;-69
2022/01/29 02:50:42;;;;;;;;;;;6.10;99.90;;;;;;5005141;28;20060;-70
2022/01/29 02:53:09;;;;;;;;;;;6.00;99.90;;;;;;5006018;28;20068;-70
2022/01/29 02:55:37;;;;;;;;;;;6.00;99.90;;;;;;5005996;28;20069;-70
2022/01/29 02:58:06;;;;;;;;;;;6.00;99.90;;;;;;5005038;28;20068;-70
2022/01/29 03:00:33;;;;;;;;;;;6.00;99.90;;;;;;5004637;28;20067;-69
2022/01/29 03:03:00;;;;;;;;;;;6.00;99.90;;;;;;5005649;28;20083;-70
2022/01/29 03:05:27;;;;;;;;;;;6.00;99.90;;;;;;5006100;28;20074;-70
2022/01/29 03:07:54;;;;;;;;;;;5.90;99.90;;;;;;5005566;28;20075;-70
2022/01/29 03:10:23;;;;;;;;;;;5.90;99.90;;;;;;5004409;28;20158;-70
2022/01/29 03:12:50;;;;;;;;;;;5.90;99.90;;;;;;5005270;28;20208;-70
2022/01/29 03:15:18;;;;;;;;;;;5.90;99.90;;;;;;5005577;28;21052;-69
2022/01/29 03:17:46;;;;;;;;;;;5.90;99.90;;;;;;5005679;28;20201;-70
2022/01/29 03:20:13;;;;;;;;;;;5.80;99.90;;;;;;5004611;28;20140;-70
2022/01/29 03:22:40;;;;;;;;;;;5.80;99.90;;;;;;5004679;28;20068;-69
2022/01/29 03:25:07;;;;;;;;;;;5.80;99.90;;;;;;5004936;28;20072;-69
2022/01/29 03:27:35;;;;;;;;;;;5.70;99.90;;;;;;5004592;28;20148;-70
2022/01/29 03:30:02;;;;;;;;;;;5.70;99.90;;;;;;5004656;28;20060;-69
2022/01/29 03:32:30;;;;;;;;;;;5.70;99.90;;;;;;5005028;28;20067;-70
2022/01/29 03:34:57;;;;;;;;;;;5.60;99.90;;;;;;5004632;28;20067;-70
2022/01/29 03:37:25;;;;;;;;;;;5.60;99.90;;;;;;5005236;28;20092;-70
2022/01/29 03:39:56;;;;;;;;;;;5.60;99.90;;;;;;5002667;28;21168;-70
2022/01/29 03:42:24;;;;;;;;;;;5.60;99.90;;;;;;5004224;28;20059;-70
2022/01/29 03:44:51;;;;;;;;;;;5.60;99.90;;;;;;5005290;28;20060;-70
2022/01/29 03:47:18;;;;;;;;;;;5.60;99.90;;;;;;5005178;28;20154;-70
2022/01/29 03:49:47;;;;;;;;;;;5.60;99.90;;;;;;5003168;28;20051;-70
2022/01/29 03:52:14;;;;;;;;;;;5.60;99.90;;;;;;5005297;28;20067;-70
2022/01/29 03:54:41;;;;;;;;;;;5.60;99.90;;;;;;5004692;28;20154;-70
2022/01/29 03:57:08;;;;;;;;;;;5.60;99.90;;;;;;5005455;28;20138;-70
2022/01/29 03:59:35;;;;;;;;;;;5.60;99.90;;;;;;5003741;28;20133;-70
2022/01/29 04:02:03;;;;;;;;;;;5.60;99.90;;;;;;5004996;28;20116;-70
2022/01/29 04:04:30;;;;;;;;;;;5.60;99.90;;;;;;5004830;28;20056;-70
2022/01/29 04:07:05;;;;;;;;;;;5.60;99.90;;;;;;5005010;28;20060;-70
2022/01/29 04:09:32;;;;;;;;;;;5.60;99.90;;;;;;5003039;28;20068;-69
2022/01/29 04:12:00;;;;;;;;;;;5.60;99.90;;;;;;5004595;28;20066;-69
2022/01/29 04:14:33;;;;;;;;;;;5.60;99.90;;;;;;5004662;28;21081;-69
2022/01/29 04:17:00;;;;;;;;;;;5.60;99.90;;;;;;5004390;28;20059;-69
2022/01/29 04:19:27;;;;;;;;;;;5.60;99.90;;;;;;5003339;28;20060;-70
2022/01/29 04:21:54;;;;;;;;;;;5.60;99.90;;;;;;5003737;28;21019;-70
2022/01/29 04:24:22;;;;;;;;;;;5.60;99.90;;;;;;5004428;28;20099;-70
2022/01/29 04:26:50;;;;;;;;;;;5.60;99.90;;;;;;5004693;28;20068;-70
2022/01/29 04:29:18;;;;;;;;;;;5.60;99.90;;;;;;5003097;28;21052;-70
2022/01/29 04:31:57;;;;;;;;;;;5.60;99.90;;;;;;5004723;28;21226;-70
2022/01/29 04:34:25;;;;;;;;;;;5.60;99.90;;;;;;5003806;28;20217;-70
2022/01/29 04:36:52;;;;;;;;;;;5.50;99.90;;;;;;5004629;28;20061;-70
2022/01/29 04:39:19;;;;;;;;;;;5.60;99.90;;;;;;5003136;28;20062;-70
2022/01/29 04:41:48;;;;;;;;;;;5.60;99.90;;;;;;5004447;28;20066;-69
2022/01/29 04:44:15;;;;;;;;;;;5.60;99.90;;;;;;5003958;28;20108;-70
2022/01/29 04:46:42;;;;;;;;;;;5.60;99.90;;;;;;5003984;28;20068;-70
2022/01/29 04:49:09;;;;;;;;;;;5.60;99.90;;;;;;5002374;28;21777;-70
2022/01/29 04:51:36;;;;;;;;;;;5.60;99.90;;;;;;5003206;28;20396;-70
2022/01/29 04:54:03;;;;;;;;;;;5.60;99.90;;;;;;5003763;28;20492;-70
2022/01/29 04:56:30;;;;;;;;;;;5.60;99.90;;;;;;4951907;28;20181;-70
2022/01/29 04:58:59;;;;;;;;;;;5.60;99.90;;;;;;4931718;28;20062;-70
2022/01/29 05:01:26;;;;;;;;;;;5.60;99.90;;;;;;4903632;28;20062;-70
2022/01/29 05:03:53;;;;;;;;;;;5.60;99.90;;;;;;4903702;28;20070;-69
2022/01/29 05:06:20;;;;;;;;;;;5.60;99.90;;;;;;4903849;28;20172;-70
2022/01/29 05:08:47;;;;;;;;;;;5.60;99.90;;;;;;4902788;28;20088;-69
2022/01/29 05:11:16;;;;;;;;;;;5.60;99.90;;;;;;4903834;28;21199;-69
2022/01/29 05:13:43;;;;;;;;;;;5.70;99.90;;;;;;4903407;28;20067;-68
2022/01/29 05:16:33;;;;;;;;;;;5.60;99.90;;;;;;4903532;28;21159;-70
2022/01/29 05:27:13;;;;;;;;;;;5.70;99.90;;;;;;4901977;28;20058;-72
2022/01/29 05:29:41;;;;;;;;;;;5.70;99.90;;;;;;4925528;28;20103;-69
2022/01/29 05:32:11;;;;;;;;;;;5.70;99.90;;;;;;4903838;29;20094;-70
2022/01/29 05:34:40;;;;;;;;;;;5.70;99.90;;;;;;4904217;29;21052;-71
2022/01/29 05:37:07;;;;;;;;;;;5.70;99.90;;;;;;4904014;29;20250;-72
2022/01/29 05:39:34;;;;;;;;;;;5.70;99.90;;;;;;4902957;29;20067;-70
2022/01/29 05:42:02;;;;;;;;;;;5.70;99.90;;;;;;4904582;29;20053;-72
2022/01/29 05:44:29;;;;;;;;;;;5.70;99.90;;;;;;4904024;29;20069;-71
2022/01/29 05:46:56;;;;;;;;;;;5.80;99.90;;;;;;4903960;29;20053;-71
2022/01/29 05:49:24;;;;;;;;;;;5.80;99.90;;;;;;4903280;29;20102;-79
2022/01/29 05:51:52;;;;;;;;;;;5.80;99.90;;;;;;4903331;29;20054;-70
2022/01/29 05:54:19;;;;;;;;;;;5.80;99.90;;;;;;4903393;29;20055;-70
2022/01/29 05:56:47;;;;;;;;;;;5.80;99.90;;;;;;4903863;29;20179;-69
2022/01/29 05:59:14;;;;;;;;;;;5.90;99.90;;;;;;4903166;29;20367;-70
2022/01/29 06:01:41;;;;;;;;;;;5.90;99.90;;;;;;4899345;28;20078;-69
2022/01/29 06:04:08;;;;;;;;;;;5.90;99.90;;;;;;4934873;28;20073;-70
2022/01/29 06:06:37;;;;;;;;;;;5.90;99.90;;;;;;4982590;28;21117;-70
2022/01/29 06:09:05;;;;;;;;;;;6.00;99.90;;;;;;4923865;28;20100;-70
2022/01/29 06:11:32;;;;;;;;;;;6.00;99.90;;;;;;4915267;28;20073;-70
2022/01/29 06:14:00;;;;;;;;;;;6.10;99.90;;;;;;4907848;28;21093;-72
2022/01/29 06:16:27;;;;;;;;;;;6.10;99.90;;;;;;4907877;28;20070;-71
2022/01/29 06:18:54;;;;;;;;;;;6.20;99.90;;;;;;4906640;28;20070;-71
2022/01/29 06:21:21;;;;;;;;;;;6.20;99.90;;;;;;4921962;28;20061;-71
2022/01/29 06:23:50;;;;;;;;;;;6.30;99.90;;;;;;4916419;28;20071;-71
2022/01/29 06:26:17;;;;;;;;;;;6.30;99.90;;;;;;4916507;28;20078;-71
2022/01/29 06:28:44;;;;;;;;;;;6.30;99.90;;;;;;4904506;28;20078;-68
2022/01/29 06:31:11;;;;;;;;;;;6.30;99.90;;;;;;4905137;29;20151;-72
2022/01/29 06:33:38;;;;;;;;;;;6.40;99.90;;;;;;4905616;28;21169;-70
2022/01/29 06:36:06;;;;;;;;;;;6.40;99.90;;;;;;4905445;28;20156;-71
2022/01/29 06:38:33;;;;;;;;;;;6.40;99.90;;;;;;4905010;28;20115;-71
2022/01/29 06:41:02;;;;;;;;;;;6.40;99.90;;;;;;4905028;28;20061;-71
2022/01/29 06:43:29;;;;;;;;;;;6.50;99.90;;;;;;4904779;28;20104;-71
2022/01/29 06:45:57;;;;;;;;;;;6.50;99.90;;;;;;4905052;28;20077;-71
2022/01/29 06:48:24;;;;;;;;;;;6.50;99.90;;;;;;4905118;28;20142;-71
2022/01/29 06:50:51;;;;;;;;;;;6.50;99.90;;;;;;4903356;29;20078;-71
2022/01/29 06:53:18;;;;;;;;;;;6.50;99.90;;;;;;4905085;28;21149;-69
2022/01/29 06:55:45;;;;;;;;;;;6.50;99.90;;;;;;4905574;28;20142;-71
2022/01/29 06:58:14;;;;;;;;;;;6.50;99.90;;;;;;4904547;28;20071;-71
2022/01/29 07:00:41;;;;;;;;;;;6.50;99.90;;;;;;4896574;29;20142;-71
2022/01/29 07:03:08;;;;;;;;;;;6.60;99.90;;;;;;4904861;28;20062;-71
2022/01/29 07:05:35;;;;;;;;;;;6.60;99.90;;;;;;4903813;29;20070;-71
2022/01/29 07:08:04;;;;;;;;;;;6.60;99.90;;;;;;4904663;28;20175;-72
2022/01/29 07:10:31;;;;;;;;;;;6.60;99.90;;;;;;4901009;28;20110;-72
2022/01/29 07:12:58;;;;;;;;;;;6.60;99.90;;;;;;4918375;28;21151;-72
2022/01/29 07:15:26;;;;;;;;;;;6.60;99.90;;;;;;4916434;28;20075;-74
2022/01/29 07:17:53;;;;;;;;;;;6.60;99.90;;;;;;4911759;28;20094;-74
2022/01/29 07:20:21;;;;;;;;;;;6.60;99.90;;;;;;4924996;28;20317;-72
2022/01/29 07:22:48;;;;;;;;;;;6.60;99.90;;;;;;4928864;28;20079;-72
2022/01/29 07:25:15;;;;;;;;;;;6.60;99.90;;;;;;4916114;28;20075;-72
2022/01/29 07:27:42;;;;;;;;;;;6.60;99.90;;;;;;4904949;28;20079;-72
2022/01/29 07:30:10;;;;;;;;;;;6.70;99.90;;;;;;4903065;29;21119;-73
2022/01/29 07:32:44;;;;;;;;;;;6.70;99.90;;;;;;4905465;28;20155;-72
2022/01/29 07:35:11;;;;;;;;;;;6.70;99.90;;;;;;4904337;29;20077;-73
2022/01/29 07:37:38;;;;;;;;;;;6.70;99.90;;;;;;4903837;28;21148;-72
2022/01/29 07:40:06;;;;;;;;;;;6.70;99.90;;;;;;4903156;28;20118;-73
2022/01/29 07:42:33;;;;;;;;;;;6.70;99.90;;;;;;4904544;28;20067;-73
2022/01/29 07:45:00;;;;;;;;;;;6.80;99.90;;;;;;4904729;28;20062;-73
2022/01/29 07:47:27;;;;;;;;;;;6.90;99.90;;;;;;4903829;29;20087;-73
2022/01/29 07:49:56;;;;;;;;;;;6.90;99.90;;;;;;4902953;29;20180;-73
2022/01/29 07:52:23;;;;;;;;;;;6.90;99.90;;;;;;4903706;29;21150;-73
2022/01/29 07:54:50;;;;;;;;;;;6.90;99.90;;;;;;4904303;29;20062;-73
2022/01/29 07:57:17;;;;;;;;;;;6.90;99.90;;;;;;4904128;28;20070;-72
2022/01/29 07:59:45;;;;;;;;;;;7.00;99.90;;;;;;4902252;28;20097;-73
2022/01/29 08:02:12;;;;;;;;;;;7.00;99.90;;;;;;4903911;28;20160;-72
2022/01/29 08:04:39;;;;;;;;;;;7.10;99.90;;;;;;4903573;28;21111;-72
2022/01/29 08:07:07;;;;;;;;;;;7.10;99.90;;;;;;4904276;28;20109;-72
2022/01/29 08:09:35;;;;;;;;;;;7.10;99.90;;;;;;4902061;29;20172;-72
2022/01/29 08:12:02;;;;;;;;;;;7.10;99.90;;;;;;4904169;28;20350;-76
2022/01/29 08:14:29;;;;;;;;;;;7.20;99.90;;;;;;4904737;28;20062;-74
2022/01/29 08:16:56;;;;;;;;;;;7.30;99.90;;;;;;4903917;29;20062;-71
2022/01/29 08:19:23;;;;;;;;;;;7.30;99.90;;;;;;4902309;28;20070;-71
2022/01/29 08:21:50;;;;;;;;;;;7.40;99.90;;;;;;4904199;28;20070;-72
2022/01/29 08:24:19;;;;;;;;;;;7.40;99.90;;;;;;4904042;29;20077;-76
2022/01/29 08:26:46;;;;;;;;;;;7.40;99.90;;;;;;4902722;28;20086;-75
2022/01/29 08:29:14;;;;;;;;;;;7.40;99.90;;;;;;4926516;28;20172;-70
2022/01/29 08:31:41;;;;;;;;;;;7.40;99.90;;;;;;4903760;28;20167;-72
2022/01/29 08:34:08;;;;;;;;;;;7.40;99.90;;;;;;4903752;29;20127;-72
2022/01/29 08:36:35;;;;;;;;;;;7.50;99.90;;;;;;4903317;28;21165;-73
2022/01/29 08:39:03;;;;;;;;;;;7.50;99.90;;;;;;4902645;28;20098;-72
2022/01/29 08:41:32;;;;;;;;;;;7.60;99.90;;;;;;4903530;28;20073;-73
2022/01/29 08:43:59;;;;;;;;;;;7.60;99.90;;;;;;4903804;28;20163;-73
2022/01/29 08:46:26;;;;;;;;;;;7.60;99.90;;;;;;4902820;28;21092;-73
2022/01/29 08:48:53;;;;;;;;;;;7.60;99.90;;;;;;4902372;29;20077;-71
2022/01/29 08:51:20;;;;;;;;;;;7.60;99.90;;;;;;4917729;28;20084;-73
2022/01/29 08:53:48;;;;;;;;;;;7.60;99.90;;;;;;4933742;28;20088;-74
2022/01/29 08:56:16;;;;;;;;;;;7.70;99.90;;;;;;4903988;28;20174;-73
2022/01/29 08:58:44;;;;;;;;;;;7.70;99.90;;;;;;4924844;28;20083;-73
2022/01/29 09:01:12;;;;;;;;;;;7.80;99.90;;;;;;4919233;28;20092;-73
2022/01/29 09:03:39;;;;;;;;;;;7.80;99.90;;;;;;4919984;28;20083;-73
2022/01/29 09:06:06;;;;;;;;;;;7.90;99.90;;;;;;4918347;28;20078;-72
2022/01/29 09:08:34;;;;;;;;;;;8.00;99.90;;;;;;4927013;28;20079;-71
2022/01/29 09:11:01;;;;;;;;;;;8.10;99.90;;;;;;4909281;28;21215;-71
2022/01/29 09:13:28;;;;;;;;;;;8.10;99.90;;;;;;4934543;28;20101;-72
2022/01/29 09:15:57;;;;;;;;;;;8.20;99.90;;;;;;4904185;28;20088;-72
2022/01/29 09:18:25;;;;;;;;;;;8.20;99.90;;;;;;4903207;28;20088;-80
2022/01/29 09:20:52;;;;;;;;;;;8.20;99.90;;;;;;4905011;29;20077;-71
2022/01/29 09:23:23;;;;;;;;;;;8.20;99.90;;;;;;4904929;28;20110;-71
2022/01/29 09:25:50;;;;;;;;;;;8.30;99.90;;;;;;4905842;29;20209;-72
2022/01/29 09:28:18;;;;;;;;;;;8.30;99.90;;;;;;4903508;28;20060;-72
2022/01/29 09:30:45;;;;;;;;;;;8.40;99.90;;;;;;4903509;29;20080;-72
2022/01/29 09:33:14;;;;;;;;;;;8.40;99.90;;;;;;4903786;28;20093;-69
2022/01/29 09:35:42;;;;;;;;;;;8.40;99.90;;;;;;4902725;28;20079;-71
2022/01/29 09:38:11;;;;;;;;;;;8.40;99.90;;;;;;4910980;28;20071;-72
2022/01/29 09:40:38;;;;;;;;;;;8.40;99.90;;;;;;4925449;28;20173;-75
2022/01/29 09:43:07;;;;;;;;;;;8.50;99.90;;;;;;4903960;28;20061;-72
2022/01/29 09:45:34;;;;;;;;;;;8.60;99.90;;;;;;4903143;29;21025;-73
2022/01/29 09:48:03;;;;;;;;;;;8.60;99.90;;;;;;4902507;28;20079;-72
2022/01/29 09:50:32;;;;;;;;;;;8.70;99.90;;;;;;4900829;28;20080;-73
2022/01/29 09:53:00;;;;;;;;;;;8.70;99.90;;;;;;4902808;28;20068;-72
2022/01/29 09:55:27;;;;;;;;;;;8.80;99.90;;;;;;4903081;28;20078;-72
2022/01/29 09:57:54;;;;;;;;;;;8.80;99.90;;;;;;4903330;28;20191;-74
2022/01/29 10:00:21;;;;;;;;;;;8.80;99.90;;;;;;4901272;29;20061;-73
2022/01/29 10:03:03;;;;;;;;;;;8.80;99.90;;;;;;4901955;28;20062;-73
2022/01/29 10:05:36;;;;;;;;;;;8.80;99.90;;;;;;4900745;29;20135;-73
2022/01/29 10:08:03;;;;;;;;;;;8.80;99.90;;;;;;4901355;28;20062;-74
2022/01/29 10:10:37;;;;;;;;;;;8.80;99.90;;;;;;4901749;28;20163;-74
2022/01/29 10:13:21;;;;;;;;;;;8.80;99.90;;;;;;4897878;28;20084;-73
2022/01/29 10:15:48;;;;;;;;;;;8.80;99.90;;;;;;4901568;28;20086;-72
2022/01/29 10:18:20;;;;;;;;;;;8.90;99.90;;;;;;4912616;28;20127;-72
2022/01/29 10:20:49;;;;;;;;;;;9.00;99.90;;;;;;4919863;28;20110;-72
2022/01/29 10:23:16;;;;;;;;;;;9.10;99.90;;;;;;4901418;28;20084;-71
2022/01/29 10:25:44;;;;;;;;;;;9.10;99.90;;;;;;4902184;28;21072;-73
2022/01/29 10:28:13;;;;;;;;;;;9.10;99.90;;;;;;4909413;28;20095;-72
2022/01/29 10:30:57;;;;;;;;;;;9.20;99.90;;;;;;4905231;28;20077;-72
2022/01/29 10:33:25;;;;;;;;;;;9.30;99.90;;;;;;4925915;28;20078;-73
2022/01/29 10:35:54;;;;;;;;;;;9.30;99.90;;;;;;4908417;28;21367;-73
2022/01/29 10:38:22;;;;;;;;;;;9.30;99.90;;;;;;4902047;28;20080;-72
2022/01/29 10:41:09;;;;;;;;;;;9.40;99.90;;;;;;4904306;28;20160;-72
2022/01/29 10:43:36;;;;;;;;;;;9.40;99.90;;;;;;4935946;28;20083;-70
2022/01/29 10:46:03;;;;;;;;;;;9.20;99.90;;;;;;4910188;28;20188;-72
2022/01/29 10:48:43;;;;;;;;;;;9.00;99.90;;;;;;4901355;28;20188;-73
2022/01/29 10:51:12;;;;;;;;;;;8.80;99.90;;;;;;4905411;28;20079;-72
2022/01/29 10:53:40;;;;;;;;;;;8.60;99.90;;;;;;4906592;29;21185;-73
2022/01/29 10:56:07;;;;;;;;;;;8.50;99.90;;;;;;4906850;28;20070;-81
2022/01/29 10:58:40;;;;;;;;;;;8.40;99.90;;;;;;4906237;29;21154;-72
2022/01/29 11:01:17;;;;;;;;;;;8.40;99.90;;;;;;4906444;28;20071;-72
2022/01/29 11:03:45;;;;;;;;;;;8.40;99.90;;;;;;4906795;29;20151;-72
2022/01/29 11:06:16;;;;;;;;;;;8.30;99.90;;;;;;4906786;28;20151;-72
2022/01/29 11:08:44;;;;;;;;;;;8.40;99.90;;;;;;4903828;29;20100;-72
2022/01/29 11:11:11;;;;;;;;;;;8.40;99.90;;;;;;4907195;29;20130;-72
2022/01/29 11:13:39;;;;;;;;;;;8.40;99.90;;;;;;4906696;29;21050;-72
2022/01/29 11:16:06;;;;;;;;;;;8.50;99.90;;;;;;4906711;28;20076;-73
2022/01/29 11:18:33;;;;;;;;;;;8.50;99.90;;;;;;4906330;28;20069;-72
2022/01/29 11:21:01;;;;;;;;;;;8.50;99.90;;;;;;4906156;29;20078;-72
2022/01/29 11:23:30;;;;;;;;;;;8.40;99.90;;;;;;4906552;29;20070;-72
2022/01/29 11:25:59;;;;;;;;;;;8.50;99.90;;;;;;4906896;29;20062;-72
2022/01/29 11:28:27;;;;;;;;;;;8.50;99.90;;;;;;4906148;28;20080;-72
2022/01/29 11:31:13;;;;;;;;;;;8.40;99.90;;;;;;4905779;28;20282;-72
2022/01/29 11:33:55;;;;;;;;;;;8.40;99.90;;;;;;4906473;29;20070;-71
2022/01/29 11:36:22;;;;;;;;;;;8.40;99.90;;;;;;4905443;29;20948;-71
2022/01/29 11:38:51;;;;;;;;;;;8.40;99.90;;;;;;4904700;29;20083;-71
2022/01/29 11:41:18;;;;;;;;;;;8.50;99.90;;;;;;4906469;28;20160;-72
2022/01/29 11:43:45;;;;;;;;;;;8.60;99.90;;;;;;4905549;28;20109;-73
2022/01/29 11:46:30;;;;;;;;;;;8.80;99.90;;;;;;4962912;28;20170;-73
2022/01/29 11:48:59;;;;;;;;;;;9.10;99.90;;;;;;4946022;28;20070;-73
2022/01/29 11:51:39;;;;;;;;;;;9.80;99.90;;;;;;4905816;28;20122;-73
2022/01/29 11:54:08;;;;;;;;;;;9.70;99.90;;;;;;4906208;28;20159;-73
2022/01/29 11:56:36;;;;;;;;;;;9.70;99.90;;;;;;4906608;28;20069;-72
2022/01/29 11:59:23;;;;;;;;;;;9.60;99.90;;;;;;4905488;29;20089;-73
2022/01/29 12:01:51;;;;;;;;;;;9.50;99.90;;;;;;4904969;28;21221;-74
2022/01/29 12:04:19;;;;;;;;;;;9.50;99.90;;;;;;4906660;29;20082;-73
2022/01/29 12:07:00;;;;;;;;;;;9.50;99.90;;;;;;4906188;29;20066;-73
2022/01/29 12:09:33;;;;;;;;;;;9.50;99.90;;;;;;4907088;28;20069;-73
2022/01/29 12:12:17;;;;;;;;;;;9.50;99.90;;;;;;4906894;29;21211;-72
2022/01/29 12:14:44;;;;;;;;;;;9.50;99.90;;;;;;4908022;29;20171;-72
2022/01/29 12:17:12;;;;;;;;;;;9.50;99.90;;;;;;4907481;29;20102;-74
2022/01/29 12:19:40;;;;;;;;;;;9.50;99.90;;;;;;4906232;29;20061;-71
2022/01/29 12:22:11;;;;;;;;;;;9.50;99.90;;;;;;4906977;29;21183;-73
2022/01/29 12:24:41;;;;;;;;;;;9.50;99.90;;;;;;4906799;29;20075;-73
2022/01/29 12:27:09;;;;;;;;;;;9.40;99.90;;;;;;4930494;28;20068;-72
2022/01/29 12:29:36;;;;;;;;;;;9.40;99.90;;;;;;4963593;28;21145;-72
2022/01/29 12:32:04;;;;;;;;;;;9.30;99.90;;;;;;5005765;28;20141;-73
2022/01/29 12:34:31;;;;;;;;;;;9.30;99.90;;;;;;5007293;28;20269;-73
2022/01/29 12:37:09;;;;;;;;;;;9.30;99.90;;;;;;5009947;28;20154;-72
2022/01/29 12:39:36;;;;;;;;;;;9.30;99.90;;;;;;4982698;28;20096;-74
2022/01/29 12:42:13;;;;;;;;;;;9.40;99.90;;;;;;4914853;28;20080;-72
2022/01/29 12:44:40;;;;;;;;;;;9.70;99.90;;;;;;4945914;28;20246;-72
2022/01/29 12:47:08;;;;;;;;;;;9.90;99.90;;;;;;4904519;28;20062;-72
2022/01/29 12:49:41;;;;;;;;;;;10.10;99.90;;;;;;4903988;28;20321;-72
2022/01/29 12:52:14;;;;;;;;;;;10.30;99.90;;;;;;4904780;28;20062;-73
2022/01/29 12:54:41;;;;;;;;;;;10.30;99.90;;;;;;4910719;28;20078;-69
2022/01/29 12:57:10;;;;;;;;;;;10.20;99.90;;;;;;4924283;28;20198;-74
2022/01/29 12:59:37;;;;;;;;;;;10.30;99.90;;;;;;4915412;28;20076;-73
2022/01/29 13:02:05;;;;;;;;;;;10.40;99.90;;;;;;4950170;28;21196;-70
2022/01/29 13:04:32;;;;;;;;;;;10.70;99.90;;;;;;4942257;28;20079;-73
2022/01/29 13:07:04;;;;;;;;;;;10.90;99.90;;;;;;4885029;29;20107;-73
2022/01/29 13:09:34;;;;;;;;;;;10.90;99.90;;;;;;4883702;29;20164;-79
2022/01/29 13:12:02;;;;;;;;;;;10.80;99.90;;;;;;4911518;28;20294;-73
2022/01/29 13:14:32;;;;;;;;;;;10.80;99.90;;;;;;4932425;28;21173;-75
2022/01/29 13:16:59;;;;;;;;;;;10.90;99.90;;;;;;4944914;28;20070;-73
2022/01/29 13:19:27;;;;;;;;;;;10.90;99.90;;;;;;4994679;28;20187;-73
2022/01/29 13:21:58;;;;;;;;;;;11.00;99.90;;;;;;5003494;28;20060;-73
2022/01/29 13:24:36;;;;;;;;;;;10.90;99.90;;;;;;5003885;28;20170;-73
2022/01/29 13:27:06;;;;;;;;;;;10.90;99.90;;;;;;5004974;28;20296;-73
2022/01/29 13:29:36;;;;;;;;;;;10.80;99.90;;;;;;5004405;28;21213;-73
2022/01/29 13:32:29;;;;;;;;;;;10.80;99.90;;;;;;5043642;28;20037;-72
2022/01/29 13:34:56;;;;;;;;;;;10.60;99.90;;;;;;5075899;28;20157;-71
2022/01/29 13:37:27;;;;;;;;;;;10.60;99.90;;;;;;5041827;28;20074;-72
2022/01/29 13:39:54;;;;;;;;;;;10.60;99.90;;;;;;5041006;28;20069;-71
2022/01/29 13:42:23;;;;;;;;;;;10.60;99.90;;;;;;5042090;28;20068;-71
2022/01/29 13:45:07;;;;;;;;;;;10.60;99.90;;;;;;5041970;28;20067;-71
2022/01/29 13:47:37;;;;;;;;;;;10.80;99.90;;;;;;5041977;28;20068;-72
2022/01/29 13:50:23;;;;;;;;;;;10.70;99.90;;;;;;5040678;28;20060;-71
2022/01/29 13:52:57;;;;;;;;;;;10.50;99.90;;;;;;5041623;28;20152;-71
2022/01/29 13:55:25;;;;;;;;;;;10.50;99.90;;;;;;5041941;28;20068;-71
2022/01/29 13:57:59;;;;;;;;;;;10.50;99.90;;;;;;5041560;28;20092;-71
2022/01/29 14:00:26;;;;;;;;;;;10.50;99.90;;;;;;5041047;28;20099;-72
2022/01/29 14:02:54;;;;;;;;;;;10.50;99.90;;;;;;5041305;28;20290;-71
2022/01/29 14:05:24;;;;;;;;;;;10.40;99.90;;;;;;5041671;28;20108;-71
2022/01/29 14:07:51;;;;;;;;;;;10.40;99.90;;;;;;5041572;28;20294;-71
2022/01/29 14:10:19;;;;;;;;;;;10.50;99.90;;;;;;5040554;28;20104;-74
2022/01/29 14:12:47;;;;;;;;;;;10.60;99.90;;;;;;5040906;28;20207;-72
2022/01/29 14:15:14;;;;;;;;;;;10.50;99.90;;;;;;5041801;28;20074;-72
2022/01/29 14:17:41;;;;;;;;;;;10.40;99.90;;;;;;5041554;28;20102;-72
2022/01/29 14:20:13;;;;;;;;;;;10.40;99.90;;;;;;5040134;28;20074;-72
2022/01/29 14:22:41;;;;;;;;;;;10.40;99.90;;;;;;5041553;28;21127;-72
2022/01/29 14:25:09;;;;;;;;;;;10.30;99.90;;;;;;5041097;28;20091;-72
2022/01/29 14:27:37;;;;;;;;;;;10.40;99.90;;;;;;5041064;28;20090;-72
2022/01/29 14:30:05;;;;;;;;;;;10.30;99.90;;;;;;5041115;28;20067;-72
2022/01/29 14:32:32;;;;;;;;;;;10.30;99.90;;;;;;5061362;28;20068;-72
2022/01/29 14:35:00;;;;;;;;;;;10.30;99.90;;;;;;5061322;28;20066;-72
2022/01/29 14:37:28;;;;;;;;;;;10.30;99.90;;;;;;5061405;28;21237;-71
2022/01/29 14:39:56;;;;;;;;;;;10.30;99.90;;;;;;5059885;28;20157;-72
2022/01/29 14:42:27;;;;;;;;;;;10.30;99.90;;;;;;5055358;28;20208;-71
2022/01/29 14:44:55;;;;;;;;;;;10.20;99.90;;;;;;5047755;28;20103;-70